createdAt,value
2022-09-11T00:00:49.784Z,6.37
2022-09-11T00:03:19.740Z,4.63
2022-09-11T00:05:47.511Z,4.83
2022-09-11T00:08:17.730Z,4.60
2022-09-11T00:10:48.316Z,4.60
2022-09-11T00:13:19.491Z,4.27
2022-09-11T00:15:47.378Z,4.67
2022-09-11T00:18:18.253Z,5.43
2022-09-11T00:20:50.728Z,4.07
2022-09-11T00:23:18.974Z,7.90
2022-09-11T00:25:47.559Z,3.73
2022-09-11T00:28:16.487Z,6.33
2022-09-11T00:30:44.823Z,3.70
2022-09-11T00:33:12.867Z,4.03
2022-09-11T00:35:40.994Z,4.97
2022-09-11T00:38:15.381Z,12.47
2022-09-11T00:40:48.129Z,3.57
2022-09-11T00:43:17.598Z,4.53
2022-09-11T00:45:46.892Z,4.07
2022-09-11T00:48:20.499Z,4.57
2022-09-11T00:50:49.658Z,4.23
2022-09-11T00:53:21.779Z,4.20
2022-09-11T00:55:54.138Z,3.00
2022-09-11T00:58:25.207Z,5.60
2022-09-11T01:00:55.752Z,3.40
2022-09-11T01:03:24.604Z,7.60
2022-09-11T01:05:53.761Z,4.00
2022-09-11T01:08:23.043Z,3.67
2022-09-11T01:11:03.162Z,4.47
2022-09-11T01:13:36.789Z,4.17
2022-09-11T01:16:12.264Z,4.97
2022-09-11T01:18:46.330Z,4.20
2022-09-11T01:21:34.739Z,4.60
2022-09-11T01:24:20.885Z,5.57
2022-09-11T01:27:01.772Z,4.40
2022-09-11T01:29:38.933Z,4.50
2022-09-11T01:32:12.425Z,4.30
2022-09-11T01:34:47.720Z,5.77
2022-09-11T01:37:29.091Z,4.23
2022-09-11T01:40:03.017Z,10.93
2022-09-11T01:42:34.778Z,5.17
2022-09-11T01:45:05.920Z,7.93
2022-09-11T01:47:35.811Z,6.90
2022-09-11T01:50:07.599Z,8.00
2022-09-11T01:52:40.638Z,7.30
2022-09-11T01:55:14.017Z,7.20
2022-09-11T01:57:44.749Z,11.33
2022-09-11T02:00:15.378Z,10.50
2022-09-11T02:02:47.362Z,6.10
2022-09-11T02:05:17.466Z,8.53
2022-09-11T02:07:50.673Z,12.63
2022-09-11T02:10:24.546Z,7.80
2022-09-11T02:12:58.650Z,5.37
2022-09-11T02:15:34.929Z,13.55
2022-09-11T02:18:07.141Z,22.43
2022-09-11T02:20:36.374Z,12.00
2022-09-11T02:23:03.963Z,17.90
2022-09-11T02:25:31.682Z,24.90
2022-09-11T02:27:59.405Z,25.87
2022-09-11T02:30:28.252Z,16.80
2022-09-11T02:32:56.548Z,17.60
2022-09-11T02:35:33.386Z,22.53
2022-09-11T02:38:09.705Z,20.57
2022-09-11T02:40:50.507Z,22.73
2022-09-11T02:43:32.971Z,18.00
2022-09-11T02:46:26.808Z,19.50
2022-09-11T02:49:03.927Z,18.97
2022-09-11T02:51:39.135Z,20.53
2022-09-11T02:54:13.531Z,23.33
2022-09-11T02:56:45.752Z,15.90
2022-09-11T02:59:19.451Z,15.87
2022-09-11T03:01:53.582Z,18.67
2022-09-11T03:04:25.319Z,20.90
2022-09-11T03:06:54.848Z,15.30
2022-09-11T03:09:22.752Z,17.00
2022-09-11T03:11:55.024Z,16.73
2022-09-11T03:14:22.838Z,13.20
2022-09-11T03:16:51.781Z,13.43
2022-09-11T03:19:20.406Z,12.20
2022-09-11T03:21:47.850Z,18.83
2022-09-11T03:24:17.016Z,16.07
2022-09-11T03:26:45.724Z,26.03
2022-09-11T03:29:13.595Z,18.03
2022-09-11T03:31:43.166Z,14.73
2022-09-11T03:34:13.453Z,20.60
2022-09-11T03:36:41.446Z,16.40
2022-09-11T03:39:09.106Z,19.60
2022-09-11T03:41:37.072Z,14.97
2022-09-11T03:44:05.921Z,17.87
2022-09-11T03:46:33.630Z,17.37
2022-09-11T03:49:01.077Z,17.40
2022-09-11T03:51:32.162Z,23.77
2022-09-11T03:54:00.607Z,20.27
2022-09-11T03:56:29.923Z,18.30
2022-09-11T03:58:58.376Z,14.07
2022-09-11T04:01:27.975Z,11.60
2022-09-11T04:03:56.379Z,20.20
2022-09-11T04:06:30.062Z,15.90
2022-09-11T04:08:58.930Z,16.80
2022-09-11T04:11:26.480Z,19.70
2022-09-11T04:13:56.293Z,24.10
2022-09-11T04:16:27.010Z,18.80
2022-09-11T04:18:56.382Z,16.83
2022-09-11T04:21:27.606Z,21.33
2022-09-11T04:24:00.033Z,21.63
2022-09-11T04:26:31.749Z,22.33
2022-09-11T04:29:09.884Z,20.37
2022-09-11T04:31:38.275Z,23.70
2022-09-11T04:34:08.629Z,22.97
2022-09-11T04:36:38.315Z,21.38
2022-09-11T04:39:07.273Z,26.77
2022-09-11T04:41:36.406Z,18.77
2022-09-11T04:44:05.626Z,20.30
2022-09-11T04:46:37.615Z,17.77
2022-09-11T04:49:10.694Z,23.40
2022-09-11T04:51:40.458Z,21.30
2022-09-11T04:54:13.989Z,16.37
2022-09-11T04:56:43.206Z,20.97
2022-09-11T04:59:15.819Z,31.83
2022-09-11T05:01:47.555Z,20.73
2022-09-11T05:04:21.720Z,23.53
2022-09-11T05:06:52.050Z,25.53
2022-09-11T05:09:19.919Z,22.55
2022-09-11T05:11:50.382Z,16.10
2022-09-11T05:14:18.249Z,18.00
2022-09-11T05:16:47.940Z,17.67
2022-09-11T05:19:17.605Z,19.50
2022-09-11T05:21:46.423Z,23.13
2022-09-11T05:24:14.841Z,25.03
2022-09-11T05:26:42.402Z,24.50
2022-09-11T05:29:14.830Z,27.13
2022-09-11T05:31:55.977Z,17.77
2022-09-11T05:34:24.333Z,20.73
2022-09-11T05:36:52.219Z,29.73
2022-09-11T05:39:19.969Z,29.50
2022-09-11T05:41:51.139Z,25.20
2022-09-11T05:44:19.919Z,24.70
2022-09-11T05:46:48.359Z,24.73
2022-09-11T05:49:16.179Z,21.67
2022-09-11T05:51:43.711Z,24.23
2022-09-11T05:54:11.624Z,27.53
2022-09-11T05:56:41.425Z,26.10
2022-09-11T05:59:15.517Z,31.83
2022-09-11T06:01:47.466Z,21.33
2022-09-11T06:04:21.666Z,24.03
2022-09-11T06:06:52.001Z,20.43
2022-09-11T06:09:20.129Z,27.30
2022-09-11T06:11:47.881Z,24.83
2022-09-11T06:14:15.478Z,23.47
2022-09-11T06:16:47.660Z,23.80
2022-09-11T06:19:17.709Z,20.20
2022-09-11T06:21:46.371Z,23.47
2022-09-11T06:24:24.751Z,24.13
2022-09-11T06:26:52.401Z,24.00
2022-09-11T06:29:20.109Z,23.67
2022-09-11T06:31:51.368Z,24.90
2022-09-11T06:34:22.821Z,22.60
2022-09-11T06:36:52.365Z,19.10
2022-09-11T06:39:22.714Z,20.83
2022-09-11T06:41:50.999Z,25.80
2022-09-11T06:44:22.365Z,22.77
2022-09-11T06:46:51.851Z,17.70
2022-09-11T06:49:20.517Z,27.00
2022-09-11T06:52:06.671Z,21.80
2022-09-11T06:54:34.303Z,23.43
2022-09-11T06:57:04.839Z,30.63
2022-09-11T06:59:32.731Z,26.63
2022-09-11T07:02:02.983Z,24.33
2022-09-11T07:04:30.530Z,27.53
2022-09-11T07:06:58.130Z,30.60
2022-09-11T07:09:26.360Z,24.80
2022-09-11T07:11:56.990Z,23.57
2022-09-11T07:14:27.090Z,21.27
2022-09-11T07:17:05.411Z,28.37
2022-09-11T07:19:33.675Z,31.53
2022-09-11T07:22:02.648Z,26.58
2022-09-11T07:24:33.017Z,22.40
2022-09-11T07:27:00.793Z,37.40
2022-09-11T07:29:32.669Z,35.17
2022-09-11T07:32:00.169Z,32.63
2022-09-11T07:34:29.933Z,29.53
2022-09-11T07:37:00.616Z,32.50
2022-09-11T07:39:28.300Z,29.10
2022-09-11T07:42:01.333Z,25.20
2022-09-11T07:44:33.165Z,32.23
2022-09-11T07:47:01.921Z,28.77
2022-09-11T07:49:33.779Z,32.40
2022-09-11T07:52:03.552Z,28.33
2022-09-11T07:54:40.387Z,28.08
2022-09-11T07:57:08.327Z,26.47
2022-09-11T07:59:36.095Z,28.33
2022-09-11T08:02:05.122Z,25.37
2022-09-11T08:04:34.004Z,26.17
2022-09-11T08:07:02.521Z,29.13
2022-09-11T08:09:34.720Z,24.70
2022-09-11T08:12:05.202Z,28.87
2022-09-11T08:14:36.860Z,25.10
2022-09-11T08:17:12.216Z,27.23
2022-09-11T08:19:42.405Z,21.53
2022-09-11T08:22:09.913Z,25.37
2022-09-11T08:24:43.263Z,21.73
2022-09-11T08:27:14.018Z,20.00
2022-09-11T08:29:43.380Z,24.60
2022-09-11T08:32:13.127Z,21.13
2022-09-11T08:34:42.640Z,26.50
2022-09-11T08:37:10.747Z,25.33
2022-09-11T08:39:39.789Z,19.70
2022-09-11T08:42:13.028Z,20.80
2022-09-11T08:44:47.657Z,22.23
2022-09-11T08:47:25.507Z,23.20
2022-09-11T08:50:02.504Z,23.10
2022-09-11T08:52:32.451Z,21.37
2022-09-11T08:55:00.819Z,18.93
2022-09-11T08:57:39.020Z,20.13
2022-09-11T09:00:14.511Z,18.17
2022-09-11T09:03:17.904Z,20.40
2022-09-11T09:05:56.168Z,18.80
2022-09-11T09:08:40.319Z,18.27
2022-09-11T09:11:20.991Z,22.13
2022-09-11T09:14:16.526Z,15.00
2022-09-11T09:16:53.766Z,14.53
2022-09-11T09:19:28.466Z,15.00
2022-09-11T09:22:06.886Z,14.13
2022-09-11T09:24:43.355Z,17.57
2022-09-11T09:27:17.342Z,15.80
2022-09-11T09:29:47.629Z,18.30
2022-09-11T09:32:21.139Z,14.87
2022-09-11T09:34:53.608Z,13.30
2022-09-11T09:37:23.925Z,15.60
2022-09-11T09:39:58.066Z,13.73
2022-09-11T09:42:43.090Z,16.47
2022-09-11T09:45:38.118Z,13.73
2022-09-11T09:48:06.970Z,14.50
2022-09-11T09:50:37.302Z,14.97
2022-09-11T09:53:14.916Z,14.33
2022-09-11T09:55:44.700Z,17.80
2022-09-11T09:58:12.261Z,10.70
2022-09-11T10:00:41.458Z,19.23
2022-09-11T10:03:20.515Z,14.63
2022-09-11T10:05:50.403Z,18.40
2022-09-11T10:08:33.601Z,13.80
2022-09-11T10:11:03.721Z,17.48
2022-09-11T10:13:33.527Z,13.70
2022-09-11T10:16:03.663Z,14.87
2022-09-11T10:18:42.366Z,12.93
2022-09-11T10:21:22.470Z,12.90
2022-09-11T10:23:54.434Z,13.90
2022-09-11T10:26:29.668Z,16.37
2022-09-11T10:29:02.721Z,13.30
2022-09-11T10:31:30.271Z,18.90
2022-09-11T10:34:00.123Z,13.67
2022-09-11T10:36:29.914Z,13.20
2022-09-11T10:39:01.062Z,18.40
2022-09-11T10:41:34.065Z,14.53
2022-09-11T10:44:03.163Z,16.60
2022-09-11T10:46:39.691Z,14.70
2022-09-11T10:49:24.850Z,12.43
2022-09-11T10:52:01.758Z,12.23
2022-09-11T10:54:48.047Z,13.37
2022-09-11T10:57:23.433Z,12.53
2022-09-11T11:00:03.678Z,12.13
2022-09-11T11:02:34.308Z,12.93
2022-09-11T11:05:06.004Z,11.80
2022-09-11T11:07:50.158Z,9.00
2022-09-11T11:10:32.409Z,13.60
2022-09-11T11:13:13.309Z,11.10
2022-09-11T11:16:00.991Z,13.13
2022-09-11T11:18:53.641Z,11.67
2022-09-11T11:21:34.046Z,9.40
2022-09-11T11:24:17.703Z,8.30
2022-09-11T11:26:59.026Z,12.00
2022-09-11T11:29:56.179Z,8.40
2022-09-11T11:32:44.805Z,10.23
2022-09-11T11:35:23.408Z,9.23
2022-09-11T11:37:56.722Z,9.80
2022-09-11T11:40:29.933Z,6.83
2022-09-11T11:43:04.509Z,5.20
2022-09-11T11:45:37.771Z,9.73
2022-09-11T11:48:11.827Z,7.40
2022-09-11T11:50:43.967Z,7.27
2022-09-11T11:53:17.990Z,6.70
2022-09-11T11:55:55.289Z,5.20
2022-09-11T11:58:36.825Z,7.07
2022-09-11T12:01:07.264Z,4.13
2022-09-11T12:03:39.577Z,4.67
2022-09-11T12:06:08.402Z,4.70
2022-09-11T12:08:43.262Z,3.80
2022-09-11T12:11:14.915Z,3.10
2022-09-11T12:13:47.766Z,5.90
2022-09-11T12:16:20.568Z,5.70
2022-09-11T12:19:14.876Z,5.50
2022-09-11T12:22:15.938Z,4.97
2022-09-11T12:24:58.537Z,4.63
2022-09-11T12:27:52.185Z,3.47
2022-09-11T12:30:30.697Z,3.57
2022-09-11T12:33:00.239Z,3.63
2022-09-11T12:35:34.756Z,4.72
2022-09-11T12:38:05.342Z,3.57
2022-09-11T12:40:38.993Z,3.90
2022-09-11T12:43:27.322Z,2.60
2022-09-11T12:45:56.790Z,6.40
2022-09-11T12:48:33.360Z,3.60
2022-09-11T12:51:01.831Z,3.70
2022-09-11T12:53:33.536Z,3.63
2022-09-11T12:56:04.421Z,4.20
2022-09-11T12:58:36.803Z,6.23
2022-09-11T13:01:18.703Z,4.17
2022-09-11T13:03:56.091Z,2.30
2022-09-11T13:06:25.142Z,4.30
2022-09-11T13:08:55.892Z,2.77
2022-09-11T13:11:37.230Z,2.40
2022-09-11T13:14:45.904Z,2.20
2022-09-11T13:17:18.591Z,2.47
2022-09-11T13:19:46.033Z,3.60
2022-09-11T13:22:26.033Z,2.50
2022-09-11T13:25:07.276Z,1.97
2022-09-11T13:27:37.497Z,2.50
2022-09-11T13:30:07.581Z,1.90
2022-09-11T13:32:36.881Z,3.70
2022-09-11T13:35:10.909Z,2.60
2022-09-11T13:37:42.453Z,2.17
2022-09-11T13:40:20.465Z,1.83
2022-09-11T13:42:49.015Z,2.13
2022-09-11T13:45:19.076Z,2.50
2022-09-11T13:47:47.848Z,1.83
2022-09-11T13:50:17.454Z,2.00
2022-09-11T13:52:47.002Z,1.93
2022-09-11T13:55:28.791Z,2.07
2022-09-11T13:57:58.924Z,1.87
2022-09-11T14:00:41.211Z,2.40
2022-09-11T14:03:20.260Z,2.67
2022-09-11T14:05:54.780Z,2.90
2022-09-11T14:08:27.533Z,4.50
2022-09-11T14:10:57.449Z,2.87
2022-09-11T14:13:32.897Z,3.50
2022-09-11T14:16:03.065Z,1.80
2022-09-11T14:18:36.111Z,2.00
2022-09-11T14:21:07.633Z,3.03
2022-09-11T14:23:42.950Z,3.70
2022-09-11T14:26:14.746Z,2.03
2022-09-11T14:29:00.896Z,2.50
2022-09-11T14:31:36.930Z,3.63
2022-09-11T14:34:17.830Z,2.10
2022-09-11T14:36:53.225Z,2.43
2022-09-11T14:39:40.849Z,2.70
2022-09-11T14:42:09.862Z,1.98
2022-09-11T14:44:40.443Z,2.00
2022-09-11T14:47:11.115Z,2.40
2022-09-11T14:49:40.024Z,3.23
2022-09-11T14:52:07.594Z,2.60
2022-09-11T14:54:35.055Z,2.50
2022-09-11T14:57:03.627Z,2.13
2022-09-11T14:59:31.136Z,1.70
2022-09-11T15:01:59.635Z,2.00
2022-09-11T15:04:29.406Z,3.30
2022-09-11T15:06:59.660Z,2.33
2022-09-11T15:09:27.293Z,4.33
2022-09-11T15:11:54.730Z,1.83
2022-09-11T15:14:38.612Z,2.45
2022-09-11T15:17:11.993Z,1.93
2022-09-11T15:19:39.676Z,3.28
2022-09-11T15:22:08.958Z,3.00
2022-09-11T15:24:36.500Z,3.47
2022-09-11T15:27:04.881Z,1.67
2022-09-11T15:29:34.377Z,1.80
2022-09-11T15:32:07.475Z,2.87
2022-09-11T15:34:35.029Z,2.43
2022-09-11T15:37:02.872Z,2.37
2022-09-11T15:39:31.837Z,2.70
2022-09-11T15:41:59.271Z,1.93
2022-09-11T15:44:28.727Z,1.83
2022-09-11T15:47:00.586Z,2.30
2022-09-11T15:49:33.080Z,2.87
2022-09-11T15:52:02.827Z,3.70
2022-09-11T15:54:31.740Z,2.40
2022-09-11T15:56:59.733Z,1.90
2022-09-11T15:59:27.246Z,2.10
2022-09-11T16:01:54.783Z,2.37
2022-09-11T16:04:23.084Z,2.10
2022-09-11T16:06:53.310Z,2.00
2022-09-11T16:09:23.897Z,2.73
2022-09-11T16:11:54.445Z,1.80
2022-09-11T16:14:23.464Z,2.10
2022-09-11T16:16:52.291Z,2.30
2022-09-11T16:19:22.377Z,1.80
2022-09-11T16:21:50.844Z,3.37
2022-09-11T16:24:18.484Z,1.87
2022-09-11T16:26:46.264Z,1.90
2022-09-11T16:29:17.904Z,2.30
2022-09-11T16:31:45.482Z,2.10
2022-09-11T16:34:15.018Z,3.10
2022-09-11T16:36:42.555Z,2.80
2022-09-11T16:39:12.501Z,2.37
2022-09-11T16:41:40.395Z,1.98
2022-09-11T16:44:11.239Z,2.70
2022-09-11T16:46:42.138Z,1.97
2022-09-11T16:49:10.188Z,2.13
2022-09-11T16:51:37.753Z,2.40
2022-09-11T16:54:05.278Z,2.33
2022-09-11T16:56:32.870Z,2.20
2022-09-11T16:59:00.357Z,2.13
2022-09-11T17:01:28.535Z,2.10
2022-09-11T17:03:58.423Z,2.10
2022-09-11T17:06:29.836Z,1.97
2022-09-11T17:09:00.038Z,2.45
2022-09-11T17:11:30.082Z,2.20
2022-09-11T17:13:58.399Z,2.30
2022-09-11T17:16:29.649Z,6.07
2022-09-11T17:19:01.426Z,2.70
2022-09-11T17:21:30.557Z,2.10
2022-09-11T17:23:58.447Z,2.50
2022-09-11T17:26:26.295Z,3.33
2022-09-11T17:28:54.944Z,2.77
2022-09-11T17:31:22.682Z,3.23
2022-09-11T17:33:50.800Z,2.80
2022-09-11T17:36:21.644Z,2.70
2022-09-11T17:38:52.560Z,3.87
2022-09-11T17:41:21.904Z,3.87
2022-09-11T17:43:50.366Z,3.43
2022-09-11T17:46:19.777Z,3.47
2022-09-11T17:48:48.115Z,2.97
2022-09-11T17:51:19.952Z,3.27
2022-09-11T17:53:50.415Z,3.03
2022-09-11T17:56:20.353Z,6.93
2022-09-11T17:58:51.503Z,4.03
2022-09-11T18:01:19.229Z,3.30
2022-09-11T18:03:52.537Z,2.87
2022-09-11T18:06:26.014Z,3.10
2022-09-11T18:08:56.524Z,4.50
2022-09-11T18:11:24.918Z,4.47
2022-09-11T18:13:53.242Z,3.93
2022-09-11T18:16:21.492Z,4.97
2022-09-11T18:18:49.005Z,6.07
2022-09-11T18:21:16.726Z,3.67
2022-09-11T18:23:46.479Z,4.68
2022-09-11T18:26:22.927Z,6.60
2022-09-11T18:28:51.060Z,5.23
2022-09-11T18:31:20.151Z,4.80
2022-09-11T18:33:54.616Z,9.13
2022-09-11T18:36:23.413Z,7.70
2022-09-11T18:38:51.485Z,8.43
2022-09-11T18:41:19.096Z,9.43
2022-09-11T18:43:48.142Z,8.80
2022-09-11T18:46:16.208Z,7.23
2022-09-11T18:48:44.899Z,6.87
2022-09-11T18:51:15.258Z,6.70
2022-09-11T18:53:43.886Z,9.40
2022-09-11T18:56:12.404Z,8.20
2022-09-11T18:58:41.777Z,8.57
2022-09-11T19:01:13.189Z,5.67
2022-09-11T19:03:42.215Z,7.07
2022-09-11T19:06:12.291Z,4.07
2022-09-11T19:08:41.784Z,9.80
2022-09-11T19:11:11.568Z,6.60
2022-09-11T19:13:39.750Z,9.40
2022-09-11T19:16:08.124Z,5.90
2022-09-11T19:18:39.375Z,5.30
2022-09-11T19:21:10.176Z,5.43
2022-09-11T19:23:40.151Z,6.53
2022-09-11T19:26:12.019Z,4.77
2022-09-11T19:28:42.168Z,5.63
2022-09-11T19:31:12.118Z,7.77
2022-09-11T19:33:42.620Z,13.70
2022-09-11T19:36:16.907Z,6.70
2022-09-11T19:38:46.168Z,7.53
2022-09-11T19:41:16.181Z,7.40
2022-09-11T19:43:44.959Z,5.93
2022-09-11T19:46:14.811Z,10.57
2022-09-11T19:48:45.570Z,8.57
2022-09-11T19:51:14.936Z,5.90
2022-09-11T19:53:42.959Z,6.87
2022-09-11T19:56:12.208Z,4.67
2022-09-11T19:58:40.608Z,6.17
2022-09-11T20:01:10.314Z,8.93
2022-09-11T20:03:40.872Z,6.47
2022-09-11T20:06:11.192Z,6.20
2022-09-11T20:08:40.184Z,10.90
2022-09-11T20:11:08.641Z,5.23
2022-09-11T20:13:36.832Z,7.30
2022-09-11T20:16:05.168Z,7.47
2022-09-11T20:18:32.908Z,6.27
2022-09-11T20:21:03.065Z,8.20
2022-09-11T20:23:32.352Z,7.23
2022-09-11T20:26:08.480Z,6.07
2022-09-11T20:28:36.260Z,8.90
2022-09-11T20:31:04.005Z,6.37
2022-09-11T20:33:31.502Z,5.00
2022-09-11T20:36:00.481Z,7.83
2022-09-11T20:38:28.140Z,7.23
2022-09-11T20:40:56.917Z,8.30
2022-09-11T20:43:25.522Z,6.57
2022-09-11T20:45:56.402Z,8.73
2022-09-11T20:48:24.169Z,6.97
2022-09-11T20:50:52.228Z,8.33
2022-09-11T20:53:21.881Z,7.03
2022-09-11T20:55:49.641Z,6.63
2022-09-11T20:58:18.445Z,7.47
2022-09-11T21:00:46.502Z,6.27
2022-09-11T21:03:14.062Z,7.85
2022-09-11T21:05:41.522Z,5.80
2022-09-11T21:08:09.009Z,6.85
2022-09-11T21:10:36.767Z,5.53
2022-09-11T21:13:04.323Z,8.07
2022-09-11T21:15:33.377Z,5.43
2022-09-11T21:18:00.832Z,6.67
2022-09-11T21:20:28.289Z,6.63
2022-09-11T21:22:55.799Z,6.97
2022-09-11T21:25:23.295Z,7.90
2022-09-11T21:27:50.736Z,6.20
2022-09-11T21:30:18.363Z,5.63
2022-09-11T21:32:47.172Z,5.53
2022-09-11T21:35:14.843Z,8.20
2022-09-11T21:37:42.266Z,7.13
2022-09-11T21:40:10.986Z,5.13
2022-09-11T21:42:38.662Z,6.27
2022-09-11T21:45:06.674Z,6.67
2022-09-11T21:47:34.137Z,4.53
2022-09-11T21:50:07.172Z,4.83
2022-09-11T21:52:35.247Z,4.80
2022-09-11T21:55:02.712Z,6.60
2022-09-11T21:57:30.892Z,6.47
2022-09-11T21:59:59.154Z,6.50
2022-09-11T22:02:27.352Z,5.97
2022-09-11T22:04:54.909Z,5.07
2022-09-11T22:07:23.748Z,5.90
2022-09-11T22:09:51.565Z,4.30
2022-09-11T22:12:19.049Z,4.33
2022-09-11T22:14:48.728Z,8.17
2022-09-11T22:17:16.528Z,4.93
2022-09-11T22:19:44.746Z,3.80
2022-09-11T22:22:12.500Z,3.73
2022-09-11T22:24:41.588Z,3.60
2022-09-11T22:27:10.219Z,3.83
2022-09-11T22:29:37.913Z,5.00
2022-09-11T22:32:05.961Z,4.17
2022-09-11T22:34:34.624Z,3.60
2022-09-11T22:37:02.227Z,4.47
2022-09-11T22:39:31.707Z,7.00
2022-09-11T22:42:00.519Z,5.80
2022-09-11T22:44:28.006Z,4.70
2022-09-11T22:46:55.471Z,5.10
2022-09-11T22:49:23.062Z,4.50
2022-09-11T22:51:50.617Z,3.70
2022-09-11T22:54:18.478Z,4.50
2022-09-11T22:56:45.913Z,8.57
2022-09-11T22:59:14.881Z,5.07
2022-09-11T23:01:42.474Z,5.13
2022-09-11T23:04:10.037Z,5.13
2022-09-11T23:06:55.292Z,5.10
2022-09-11T23:09:22.774Z,5.90
2022-09-11T23:11:50.253Z,6.20
2022-09-11T23:14:19.117Z,5.17
2022-09-11T23:16:46.703Z,5.07
2022-09-11T23:19:14.907Z,4.18
2022-09-11T23:21:43.334Z,5.03
2022-09-11T23:24:14.317Z,8.20
2022-09-11T23:26:41.893Z,5.20
2022-09-11T23:29:09.504Z,5.63
2022-09-11T23:31:38.672Z,6.43
2022-09-11T23:34:07.977Z,5.10
2022-09-11T23:36:36.744Z,5.47
2022-09-11T23:39:04.549Z,5.77
2022-09-11T23:41:32.826Z,6.40
2022-09-11T23:44:00.678Z,5.93
2022-09-11T23:46:28.152Z,4.43
2022-09-11T23:48:56.975Z,4.50
2022-09-11T23:51:24.506Z,5.37
2022-09-11T23:53:52.378Z,7.70
2022-09-11T23:56:20.828Z,7.60
2022-09-11T23:58:48.517Z,5.43
